Time;durP1;ratioP1;P1;durP2;ratioP2;P2;SDS_P1;SDS_P2;PMS_P1;PMS_P2;Temp;Humidity;BMP_temperature;BMP_pressure;BME280_temperature;BME280_humidity;BME280_pressure;Samples;Min_cycle;Max_cycle;Signal;HPM_P1;HPM_P2
2023/10/09 00:01:13;;;;;;;0.00;0.00;;;;;;;15.49;100.00;102031.53;5103425;28;20354;-47
2023/10/09 00:03:41;;;;;;;0.00;0.00;;;;;;;15.49;100.00;102036.97;5113908;28;20559;-47
2023/10/09 00:06:07;;;;;;;0.00;0.00;;;;;;;15.52;100.00;102036.59;5110119;28;20546;-44
2023/10/09 00:08:34;;;;;;;0.00;0.00;;;;;;;15.55;100.00;102038.94;5112875;28;20023;-44
2023/10/09 00:11:19;;;;;;;0.00;0.00;;;;;;;15.57;100.00;102036.88;5113335;28;20031;-44
2023/10/09 00:13:48;;;;;;;0.00;0.00;;;;;;;15.66;100.00;102036.78;5111743;28;20385;-45
2023/10/09 00:16:23;;;;;;;0.00;0.00;;;;;;;15.70;100.00;102032.72;5111490;28;20057;-44
2023/10/09 00:18:48;;;;;;;0.00;0.00;;;;;;;15.72;100.00;102033.38;5111100;28;20034;-44
2023/10/09 00:21:20;;;;;;;0.00;0.00;;;;;;;15.76;100.00;102026.53;5093180;28;20028;-43
2023/10/09 00:23:55;;;;;;;0.00;0.00;;;;;;;15.82;100.00;102023.06;5111489;28;20043;-44
2023/10/09 00:26:20;;;;;;;0.00;0.00;;;;;;;15.88;100.00;102025.03;5095080;28;20374;-45
2023/10/09 00:28:47;;;;;;;0.00;0.00;;;;;;;15.92;100.00;102025.50;5093040;28;20125;-45
2023/10/09 00:31:15;;;;;;;0.00;0.00;;;;;;;16.00;100.00;102028.09;5111134;28;20547;-45
2023/10/09 00:33:42;;;;;;;0.00;0.00;;;;;;;16.07;100.00;102026.34;5111460;28;20035;-45
2023/10/09 00:36:12;;;;;;;0.00;0.00;;;;;;;16.16;100.00;102021.63;5116527;27;20087;-45
2023/10/09 00:38:45;;;;;;;0.00;0.00;;;;;;;16.25;100.00;102028.66;5109616;28;20092;-42
2023/10/09 00:41:10;;;;;;;0.00;0.00;;;;;;;16.40;100.00;102020.44;5109778;28;20053;-43
2023/10/09 00:43:37;;;;;;;0.00;0.00;;;;;;;16.50;100.00;102017.41;5110535;28;20485;-42
2023/10/09 00:46:11;;;;;;;0.00;0.00;;;;;;;16.58;100.00;102018.13;5109485;28;20466;-44
2023/10/09 00:48:40;;;;;;;0.00;0.00;;;;;;;16.67;100.00;102008.00;5085922;28;20130;-42
2023/10/09 00:51:15;;;;;;;0.00;0.00;;;;;;;16.77;100.00;101997.69;5103805;28;20035;-44
2023/10/09 00:53:43;;;;;;;0.00;0.00;;;;;;;16.82;100.00;101995.19;5108994;28;20035;-44
2023/10/09 00:59:14;;;;;;;0.00;0.00;;;;;;;16.92;100.00;101991.31;5092258;28;19912;-42
2023/10/09 01:01:41;;;;;;;0.00;0.00;;;;;;;16.94;100.00;101989.25;5092501;28;20081;-46
2023/10/09 01:04:17;;;;;;;0.00;0.00;;;;;;;16.97;100.00;101980.69;5111192;28;20024;-44
2023/10/09 01:06:52;;;;;;;0.00;0.00;;;;;;;16.96;100.00;101981.72;5109476;28;20493;-44
2023/10/09 01:09:19;;;;;;;0.00;0.00;;;;;;;16.97;100.00;101980.69;5111063;28;20031;-45
2023/10/09 01:14:25;;;;;;;0.00;0.00;;;;;;;16.96;100.00;101968.13;5109625;28;20793;-43
2023/10/09 01:16:53;;;;;;;0.00;0.00;;;;;;;16.96;100.00;101965.41;5109867;28;20038;-45
2023/10/09 01:19:27;;;;;;;0.00;0.00;;;;;;;16.94;100.00;101964.75;5108193;28;20069;-48
2023/10/09 01:21:53;;;;;;;0.00;0.00;;;;;;;16.97;100.00;101953.50;5110218;28;20060;-46
2023/10/09 01:24:19;;;;;;;0.00;0.00;;;;;;;16.97;100.00;101954.31;5109761;28;20110;-48
2023/10/09 01:26:46;;;;;;;0.00;0.00;;;;;;;16.96;100.00;101947.22;5109448;28;20053;-46
2023/10/09 01:29:20;;;;;;;0.00;0.00;;;;;;;16.97;100.00;101942.63;5111139;28;20031;-46
2023/10/09 01:31:55;;;;;;;0.00;0.00;;;;;;;16.97;100.00;101942.63;5108831;28;20028;-46
2023/10/09 01:34:42;;;;;;;0.00;0.00;;;;;;;16.97;100.00;101935.28;5110877;28;20036;-43
2023/10/09 01:37:18;;;;;;;0.00;0.00;;;;;;;16.98;100.00;101937.00;5106823;28;20032;-44
2023/10/09 01:39:48;;;;;;;0.00;0.00;;;;;;;16.98;100.00;101930.69;5091943;28;20031;-46
2023/10/09 01:42:23;;;;;;;0.00;0.00;;;;;;;17.00;100.00;101931.34;5108919;28;20474;-47
2023/10/09 01:44:49;;;;;;;0.00;0.00;;;;;;;17.00;100.00;101937.59;5104560;28;20106;-44
2023/10/09 01:47:18;;;;;;;0.00;0.00;;;;;;;17.00;100.00;101940.31;5108872;28;21210;-42
2023/10/09 01:49:44;;;;;;;0.00;0.00;;;;;;;16.98;100.00;101934.28;5109159;28;20448;-45
2023/10/09 01:52:16;;;;;;;0.00;0.00;;;;;;;16.94;100.00;101932.13;5110162;28;20122;-45
2023/10/09 01:54:51;;;;;;;0.00;0.00;;;;;;;16.92;100.00;101928.75;5110405;28;20523;-45
2023/10/09 01:57:24;;;;;;;0.00;0.00;;;;;;;16.88;100.00;101931.06;5111257;28;20063;-44
2023/10/09 01:59:53;;;;;;;0.00;0.00;;;;;;;16.88;100.00;101923.72;5109224;28;20023;-44
2023/10/09 02:02:33;;;;;;;0.00;0.00;;;;;;;16.88;100.00;101926.44;5109645;28;20044;-42
2023/10/09 02:07:51;;;;;;;0.00;0.00;;;;;;;16.86;100.00;101923.06;5109897;28;20040;-46
2023/10/09 02:12:58;;;;;;;0.00;0.00;;;;;;;16.91;100.00;101913.50;5107900;28;20043;-45
2023/10/09 02:20:54;;;;;;;0.00;0.00;;;;;;;16.92;100.00;101918.72;5110343;28;20452;-46
2023/10/09 02:23:25;;;;;;;0.00;0.00;;;;;;;16.92;100.00;101924.16;5107217;28;20035;-46
2023/10/09 02:25:53;;;;;;;0.00;0.00;;;;;;;16.91;100.00;101921.66;5110128;28;20398;-47
2023/10/09 02:28:18;;;;;;;0.00;0.00;;;;;;;16.91;100.00;101927.09;5109751;28;20405;-45
2023/10/09 02:30:47;;;;;;;0.00;0.00;;;;;;;16.89;100.00;101922.69;5092215;28;20028;-43
2023/10/09 02:33:20;;;;;;;0.00;0.00;;;;;;;16.91;100.00;101918.94;5113380;28;20072;-45
2023/10/09 02:35:51;;;;;;;0.00;0.00;;;;;;;16.91;100.00;101921.66;5113611;28;20027;-47
2023/10/09 02:38:17;;;;;;;0.00;0.00;;;;;;;16.97;100.00;101909.97;5113398;28;20040;-47
2023/10/09 02:41:17;;;;;;;0.00;0.00;;;;;;;17.03;100.00;101920.06;5113523;28;20105;-47
2023/10/09 02:43:47;;;;;;;0.00;0.00;;;;;;;17.06;100.00;101919.66;5113272;28;20028;-46
2023/10/09 02:46:29;;;;;;;0.00;0.00;;;;;;;17.06;100.00;101912.34;5112852;28;20035;-44
2023/10/09 02:48:56;;;;;;;0.00;0.00;;;;;;;17.04;100.00;101903.56;5112715;28;20488;-43
2023/10/09 02:53:51;;;;;;;0.00;0.00;;;;;;;17.02;100.00;101907.50;5113370;28;20047;-47
2023/10/09 02:56:23;;;;;;;0.00;0.00;;;;;;;17.03;100.00;101892.84;5113478;28;20027;-46
2023/10/09 02:58:52;;;;;;;0.00;0.00;;;;;;;17.02;100.00;101897.47;5113462;28;20168;-47
2023/10/09 03:01:17;;;;;;;0.00;0.00;;;;;;;17.02;100.00;101896.63;5113047;28;20522;-48
2023/10/09 03:03:46;;;;;;;0.00;0.00;;;;;;;17.02;100.00;101888.47;5092663;28;20110;-45
2023/10/09 03:06:24;;;;;;;0.00;0.00;;;;;;;17.04;100.00;101872.81;5111793;28;20035;-45
2023/10/09 03:08:50;;;;;;;0.00;0.00;;;;;;;17.05;100.00;101869.03;5111718;28;20028;-44
2023/10/09 03:11:15;;;;;;;0.00;0.00;;;;;;;17.09;100.00;101878.47;5111674;28;20049;-47
2023/10/09 03:13:45;;;;;;;0.00;0.00;;;;;;;17.11;100.00;101888.13;5112792;28;20039;-45
2023/10/09 03:16:18;;;;;;;0.00;0.00;;;;;;;17.11;100.00;101882.69;5112285;28;20023;-43
2023/10/09 03:18:53;;;;;;;0.00;0.00;;;;;;;17.11;100.00;101882.69;5111394;28;20084;-45
2023/10/09 03:21:19;;;;;;;0.00;0.00;;;;;;;17.12;100.00;101897.13;5111740;28;20092;-46
2023/10/09 03:23:51;;;;;;;0.00;0.00;;;;;;;17.14;100.00;101908.66;5111979;28;20479;-43
2023/10/09 03:26:20;;;;;;;0.00;0.00;;;;;;;17.13;100.00;101914.28;5112802;28;20521;-46
2023/10/09 03:28:47;;;;;;;0.00;0.00;;;;;;;17.14;100.00;101932.25;5112094;28;20020;-44
2023/10/09 03:31:12;;;;;;;0.00;0.00;;;;;;;17.18;100.00;101934.38;5111320;28;20038;-49
2023/10/09 03:33:38;;;;;;;0.00;0.00;;;;;;;17.21;100.00;101933.16;5106459;28;20020;-49
2023/10/09 03:36:09;;;;;;;0.00;0.00;;;;;;;17.21;100.00;101936.72;5112770;28;20461;-44
2023/10/09 03:38:36;;;;;;;0.00;0.00;;;;;;;17.19;100.00;101936.06;5111907;28;20035;-45
2023/10/09 03:41:05;;;;;;;0.00;0.00;;;;;;;17.22;100.00;101934.81;5093854;28;20031;-48
2023/10/09 03:43:37;;;;;;;0.00;0.00;;;;;;;17.19;100.00;101930.63;5111408;28;20106;-46
2023/10/09 03:46:04;;;;;;;0.00;0.00;;;;;;;17.16;100.00;101920.13;5112233;28;20032;-43
2023/10/09 03:48:34;;;;;;;0.00;0.00;;;;;;;17.14;100.00;101915.94;5095501;28;20019;-44
2023/10/09 03:51:09;;;;;;;0.00;0.00;;;;;;;17.14;100.00;101911.38;5110539;28;20073;-42
2023/10/09 03:53:42;;;;;;;0.00;0.00;;;;;;;17.14;100.00;101927.69;5092116;28;20422;-47
2023/10/09 03:56:15;;;;;;;0.00;0.00;;;;;;;17.11;100.00;101917.19;5109746;28;20027;-43
2023/10/09 03:58:43;;;;;;;0.00;0.00;;;;;;;17.10;100.00;101921.78;5090001;28;20036;-45
2023/10/09 04:01:28;;;;;;;0.00;0.00;;;;;;;17.11;100.00;101917.19;5100153;28;20362;-45
2023/10/09 04:03:59;;;;;;;0.00;0.00;;;;;;;17.09;100.00;101920.13;5108366;28;20109;-46
2023/10/09 04:06:32;;;;;;;0.00;0.00;;;;;;;17.06;100.00;101914.22;5109051;28;20470;-44
2023/10/09 04:09:27;;;;;;;0.00;0.00;;;;;;;17.06;100.00;101903.34;5109980;28;20027;-45
2023/10/09 04:14:34;;;;;;;0.00;0.00;;;;;;;17.04;100.00;101883.69;5109599;28;20055;-44
2023/10/09 04:17:05;;;;;;;0.00;0.00;;;;;;;17.05;100.00;101886.19;5109673;28;20024;-43
2023/10/09 04:19:38;;;;;;;0.00;0.00;;;;;;;17.06;100.00;101889.72;5110083;28;20035;-47
2023/10/09 04:22:09;;;;;;;0.00;0.00;;;;;;;17.04;100.00;101883.69;5109742;28;20058;-44
2023/10/09 04:24:44;;;;;;;0.00;0.00;;;;;;;17.04;100.00;101880.97;5109435;28;20084;-46
2023/10/09 04:27:09;;;;;;;0.00;0.00;;;;;;;17.03;100.00;101892.84;5091189;28;20028;-46
2023/10/09 04:29:38;;;;;;;0.00;0.00;;;;;;;17.05;100.00;101898.94;5109214;28;20065;-47
2023/10/09 04:32:07;;;;;;;0.00;0.00;;;;;;;17.04;100.00;101900.84;5111293;27;20127;-45
2023/10/09 04:34:37;;;;;;;0.00;0.00;;;;;;;17.02;100.00;101900.19;5107133;27;20020;-44
2023/10/09 04:39:47;;;;;;;0.00;0.00;;;;;;;17.02;100.00;101926.53;5109082;28;20031;-44
2023/10/09 04:45:18;;;;;;;0.00;0.00;;;;;;;17.05;100.00;101917.97;5108492;28;20703;-45
2023/10/09 04:47:49;;;;;;;0.00;0.00;;;;;;;17.07;100.00;101910.47;5108413;28;20032;-45
2023/10/09 04:50:45;;;;;;;0.00;0.00;;;;;;;17.08;100.00;101906.69;5125661;27;20031;-46
2023/10/09 04:53:22;;;;;;;0.00;0.00;;;;;;;17.09;100.00;101920.13;5110873;28;20135;-45
2023/10/09 04:55:57;;;;;;;0.00;0.00;;;;;;;17.09;100.00;101925.56;5096690;28;20106;-44
2023/10/09 04:58:26;;;;;;;0.00;0.00;;;;;;;17.11;100.00;101933.50;5110330;28;20075;-45
2023/10/09 05:03:30;;;;;;;0.00;0.00;;;;;;;17.13;100.00;101930.59;5111028;28;20409;-45
2023/10/09 05:05:59;;;;;;;0.00;0.00;;;;;;;17.15;100.00;101937.50;5088915;28;20490;-49
2023/10/09 05:08:29;;;;;;;0.00;0.00;;;;;;;17.16;100.00;101936.47;5104303;28;20243;-46
2023/10/09 05:16:13;;;;;;;0.00;0.00;;;;;;;17.20;100.00;101943.19;5101405;28;20536;-43
2023/10/09 05:18:59;;;;;;;0.00;0.00;;;;;;;17.20;100.00;101937.75;5109059;28;20228;-46
2023/10/09 05:29:19;;;;;;;0.00;0.00;;;;;;;17.18;100.00;101930.84;5110228;28;20039;-46
2023/10/09 05:37:26;;;;;;;0.00;0.00;;;;;;;17.14;100.00;101905.94;5112283;27;20092;-46
2023/10/09 05:42:42;;;;;;;0.00;0.00;;;;;;;17.08;100.00;101917.59;5111316;28;20039;-45
2023/10/09 05:50:34;;;;;;;0.00;0.00;;;;;;;17.03;100.00;101884.69;5109727;28;20065;-47
2023/10/09 06:04:15;;;;;;;0.00;0.00;;;;;;;17.03;100.00;101896.41;5110061;28;20039;-45
2023/10/09 06:06:44;;;;;;;0.00;0.00;;;;;;;16.98;100.00;101879.00;5111614;28;20047;-42
2023/10/09 06:11:49;;;;;;;0.00;0.00;;;;;;;16.92;100.00;101896.13;5112770;28;20043;-41
2023/10/09 06:19:26;;;;;;;0.00;0.00;;;;;;;17.03;100.00;101925.50;5111998;28;20044;-46
2023/10/09 06:22:30;;;;;;;0.00;0.00;;;;;;;17.06;100.00;101914.22;5113760;28;20116;-46
2023/10/09 06:32:50;;;;;;;0.00;0.00;;;;;;;17.20;100.00;101932.31;5111578;27;20070;-44
2023/10/09 06:35:16;;;;;;;0.00;0.00;;;;;;;17.21;100.00;101946.75;5112375;28;20023;-44
2023/10/09 06:43:52;;;;;;;0.00;0.00;;;;;;;17.27;100.00;101949.53;5110844;27;20401;-44
2023/10/09 06:46:37;;;;;;;0.00;0.00;;;;;;;17.28;100.00;101945.75;5103554;27;20120;-45
2023/10/09 06:48:45;;;;;;;0.00;0.00;;;;;;;17.26;100.00;101936.13;5097442;28;20047;-42
2023/10/09 06:59:04;;;;;;;0.00;0.00;;;;;;;17.39;100.00;101932.66;5110960;28;20043;-42
2023/10/09 07:01:42;;;;;;;0.00;0.00;;;;;;;17.38;100.00;101925.50;5113623;27;20366;-44
2023/10/09 07:04:45;;;;;;;0.00;0.00;;;;;;;17.37;100.00;101912.94;5113317;28;20031;-46
2023/10/09 07:07:20;;;;;;;0.00;0.00;;;;;;;17.39;100.00;101897.25;5111326;27;20031;-43
2023/10/09 07:12:33;;;;;;;0.00;0.00;;;;;;;17.31;100.00;101915.44;5107814;28;20394;-45
2023/10/09 07:16:23;;;;;;;0.00;0.00;;;;;;;17.29;100.00;101919.38;5112751;28;20028;-43
2023/10/09 07:17:52;;;;;;;0.00;0.00;;;;;;;17.26;100.00;101925.25;5122581;27;20035;-44
2023/10/09 07:23:14;;;;;;;0.00;0.00;;;;;;;17.30;100.00;101923.81;5109700;28;20141;-46
2023/10/09 07:25:54;;;;;;;0.00;0.00;;;;;;;17.28;100.00;101912.28;5108926;28;20745;-43
2023/10/09 07:29:00;;;;;;;0.00;0.00;;;;;;;17.29;100.00;101916.66;5082193;28;20031;-45
2023/10/09 07:31:39;;;;;;;0.00;0.00;;;;;;;17.33;100.00;101913.34;5095296;28;20477;-45
2023/10/09 07:34:30;;;;;;;0.00;0.00;;;;;;;17.37;100.00;101904.78;5109654;28;20148;-42
2023/10/09 07:36:56;;;;;;;0.00;0.00;;;;;;;17.42;100.00;101914.03;5108117;27;20043;-44
2023/10/09 07:39:22;;;;;;;0.00;0.00;;;;;;;17.45;100.00;101912.78;5093778;28;20169;-42
2023/10/09 07:44:37;;;;;;;0.00;0.00;;;;;;;17.50;100.00;101905.69;5078857;28;20039;-44
2023/10/09 07:49:53;;;;;;;0.00;0.00;;;;;;;17.64;100.00;101903.03;5105848;28;20413;-41
2023/10/09 07:52:21;;;;;;;0.00;0.00;;;;;;;17.65;100.00;101902.84;5105130;28;20049;-42
2023/10/09 07:54:52;;;;;;;0.00;0.00;;;;;;;17.73;100.00;101894.47;5110606;28;20027;-46
2023/10/09 07:57:25;;;;;;;0.00;0.00;;;;;;;17.80;100.00;101888.25;5109163;28;20031;-43
2023/10/09 08:00:11;;;;;;;0.00;0.00;;;;;;;17.97;100.00;101889.56;5111099;28;20133;-43
2023/10/09 08:02:38;;;;;;;0.00;0.00;;;;;;;18.15;100.00;101898.00;5106849;28;20048;-43
2023/10/09 08:05:18;;;;;;;0.00;0.00;;;;;;;18.31;100.00;101891.31;5107686;28;20066;-43
2023/10/09 08:07:54;;;;;;;0.00;0.00;;;;;;;18.40;100.00;101900.13;5105327;28;20043;-42
2023/10/09 08:15:20;;;;;;;0.00;0.00;;;;;;;18.72;100.00;101928.47;5113101;28;20043;-45
2023/10/09 08:18:03;;;;;;;0.00;0.00;;;;;;;18.84;100.00;101929.53;5112313;28;20103;-41
2023/10/09 08:20:50;;;;;;;0.00;0.00;;;;;;;19.11;100.00;101939.59;5109781;28;20037;-44
2023/10/09 08:23:28;;;;;;;0.00;0.00;;;;;;;19.45;100.00;101942.03;5091880;28;20051;-44
2023/10/09 08:26:13;;;;;;;0.00;0.00;;;;;;;19.74;100.00;101937.13;5107034;28;20024;-46
2023/10/09 08:28:43;;;;;;;0.00;0.00;;;;;;;19.91;100.00;101941.06;5103592;28;20436;-40
2023/10/09 08:34:01;;;;;;;0.00;0.00;;;;;;;20.07;100.00;101945.19;5110750;28;20042;-44
2023/10/09 08:36:36;;;;;;;0.00;0.00;;;;;;;20.16;100.00;101954.78;5109927;28;20473;-42
2023/10/09 08:39:17;;;;;;;0.00;0.00;;;;;;;20.55;100.00;101952.91;5111119;28;20023;-45
2023/10/09 08:41:42;;;;;;;0.00;0.00;;;;;;;20.42;100.00;101957.59;5112097;28;20039;-46
2023/10/09 08:44:12;;;;;;;0.00;0.00;;;;;;;20.57;100.00;101960.91;5108953;28;20036;-44
2023/10/09 08:46:37;;;;;;;0.00;0.00;;;;;;;20.70;100.00;101970.91;5092397;28;20027;-44
2023/10/09 08:49:10;;;;;;;0.00;0.00;;;;;;;20.74;100.00;101972.13;5103365;28;20032;-47
2023/10/09 08:51:36;;;;;;;0.00;0.00;;;;;;;20.75;100.00;101974.66;5118236;27;20488;-41
2023/10/09 08:54:01;;;;;;;0.00;0.00;;;;;;;20.66;100.00;101980.59;5107252;28;20019;-41
2023/10/09 08:56:27;;;;;;;0.00;0.00;;;;;;;20.56;100.00;101986.56;5111277;27;20028;-44
2023/10/09 08:58:55;;;;;;;0.00;0.00;;;;;;;20.58;100.00;101984.44;5110256;28;20092;-45
2023/10/09 09:01:21;;;;;;;0.00;0.00;;;;;;;20.48;100.00;101989.53;5110054;28;20028;-43
2023/10/09 09:03:48;;;;;;;0.00;0.00;;;;;;;20.46;100.00;101986.16;5110886;27;20033;-42
2023/10/09 09:06:14;;;;;;;0.00;0.00;;;;;;;20.52;100.00;101985.31;5110263;28;20028;-47
2023/10/09 09:08:44;;;;;;;0.00;0.00;;;;;;;20.55;100.00;101985.72;5110366;28;20140;-43
2023/10/09 09:11:17;;;;;;;0.00;0.00;;;;;;;20.51;100.00;101979.00;5108843;28;20073;-44
2023/10/09 09:13:50;;;;;;;0.00;0.00;;;;;;;20.42;100.00;101983.03;5109001;28;20036;-45
2023/10/09 09:16:17;;;;;;;0.00;0.00;;;;;;;20.33;100.00;101987.94;5109561;28;20023;-45
2023/10/09 09:21:58;;;;;;;0.00;0.00;;;;;;;20.14;100.00;101977.94;5069265;28;20069;-43
2023/10/09 09:27:00;;;;;;;0.00;0.00;;;;;;;20.17;100.00;101980.25;5110587;28;20416;-45
2023/10/09 09:29:37;;;;;;;0.00;0.00;;;;;;;20.23;100.00;101993.03;5105753;28;20043;-42
2023/10/09 09:35:04;;;;;;;0.00;0.00;;;;;;;20.41;100.00;101994.22;5095307;28;20119;-43
2023/10/09 09:37:33;;;;;;;0.00;0.00;;;;;;;20.39;100.00;101987.06;5109123;28;20066;-44
2023/10/09 09:40:14;;;;;;;0.00;0.00;;;;;;;20.40;100.00;101987.88;5109341;28;20028;-43
2023/10/09 09:42:44;;;;;;;0.00;0.00;;;;;;;20.42;100.00;101987.69;5097074;28;20670;-43
2023/10/09 09:45:11;;;;;;;0.00;0.00;;;;;;;20.37;100.00;101985.59;5107745;28;20041;-42
2023/10/09 09:47:37;;;;;;;0.00;0.00;;;;;;;20.35;100.00;101990.44;5109739;28;20554;-43
2023/10/09 09:50:12;;;;;;;0.00;0.00;;;;;;;20.35;100.00;101988.56;5108641;28;20071;-41
2023/10/09 09:52:38;;;;;;;0.00;0.00;;;;;;;20.30;100.00;101998.47;5107691;28;20023;-42
2023/10/09 09:55:18;;;;;;;0.00;0.00;;;;;;;20.37;100.00;102000.09;5109829;28;20458;-46
2023/10/09 09:57:51;;;;;;;0.00;0.00;;;;;;;20.36;100.00;101992.97;5106401;28;20026;-43
2023/10/09 10:00:29;;;;;;;0.00;0.00;;;;;;;20.30;100.00;101993.84;5106147;28;20028;-44
2023/10/09 10:03:16;;;;;;;0.00;0.00;;;;;;;20.20;100.00;101985.28;5102258;28;20050;-43
2023/10/09 10:05:46;;;;;;;0.00;0.00;;;;;;;20.19;100.00;101991.78;5108898;28;20044;-45
2023/10/09 10:08:19;;;;;;;0.00;0.00;;;;;;;20.25;100.00;101998.28;5093295;28;20076;-44
2023/10/09 10:10:52;;;;;;;0.00;0.00;;;;;;;20.41;100.00;102005.16;5091463;28;20126;-49
2023/10/09 10:13:27;;;;;;;0.00;0.00;;;;;;;20.48;100.00;102005.94;5102627;28;20423;-47
2023/10/09 10:16:02;;;;;;;0.00;0.00;;;;;;;20.58;100.00;102007.16;5116376;28;20059;-45
2023/10/09 10:18:32;;;;;;;0.00;0.00;;;;;;;20.58;100.00;102003.59;5127444;27;20172;-46
2023/10/09 10:21:15;;;;;;;0.00;0.00;;;;;;;20.65;100.00;101993.44;5109313;28;20434;-45
2023/10/09 10:23:41;;;;;;;0.00;0.00;;;;;;;20.78;100.00;101993.34;5110518;28;20038;-48
2023/10/09 10:26:17;;;;;;;0.00;0.00;;;;;;;20.89;100.00;101990.97;5115548;28;20110;-43
2023/10/09 10:28:45;;;;;;;0.00;0.00;;;;;;;20.81;100.00;101995.66;5110412;28;20069;-45
2023/10/09 10:31:13;;;;;;;;;;;;;;;20.95;100.00;102006.47;5112168;28;20503;-45
2023/10/09 10:33:54;;;;;;;0.00;0.00;;;;;;;21.02;100.00;101999.06;5111180;28;19926;-43
2023/10/09 10:36:22;;;;;;;0.00;0.00;;;;;;;21.08;100.00;101997.31;5111164;28;20097;-44
2023/10/09 10:39:04;;;;;;;0.00;0.00;;;;;;;21.03;100.00;102006.19;5109710;28;20070;-46
2023/10/09 10:41:35;;;;;;;0.00;0.00;;;;;;;21.07;100.00;102003.88;5110705;28;20493;-43
2023/10/09 10:44:33;;;;;;;0.00;0.00;;;;;;;20.96;100.00;101994.50;5109800;28;20059;-42
2023/10/09 10:46:52;;;;;;;0.00;0.00;;;;;;;20.95;100.00;101993.63;5110059;28;20035;-45
2023/10/09 10:49:26;;;;;;;0.00;0.00;;;;;;;20.92;100.00;101999.56;5109280;28;20442;-44
2023/10/09 10:57:00;;;;;;;0.00;0.00;;;;;;;21.18;100.00;101992.19;5113954;28;20077;-45
2023/10/09 10:59:42;;;;;;;0.00;0.00;;;;;;;21.29;100.00;101987.88;5113629;28;20047;-45
2023/10/09 11:07:09;;;;;;;0.00;0.00;;;;;;;21.44;100.00;101994.69;5112838;28;20474;-44
2023/10/09 11:09:59;;;;;;;0.00;0.00;;;;;;;21.49;100.00;101999.50;5092945;28;20496;-45
2023/10/09 11:12:37;;;;;;;0.00;0.00;;;;;;;21.49;100.00;101999.50;5106566;28;20378;-43
2023/10/09 11:15:07;;;;;;;0.00;0.00;;;;;;;21.58;100.00;102002.78;5113564;28;20027;-44
2023/10/09 11:17:35;;;;;;;0.00;0.00;;;;;;;21.65;100.00;102000.81;5113041;28;20019;-44
2023/10/09 11:20:22;;;;;;;0.00;0.00;;;;;;;21.61;100.00;102005.06;5112948;28;20081;-44
2023/10/09 11:23:29;;;;;;;0.00;0.00;;;;;;;21.78;100.00;102017.09;5112574;28;20405;-42
2023/10/09 11:25:50;;;;;;;0.00;0.00;;;;;;;21.67;100.00;102004.16;5093947;28;20466;-42
2023/10/09 11:28:42;;;;;;;0.00;0.00;;;;;;;21.69;100.00;102013.78;5112433;27;20078;-47
2023/10/09 11:31:16;;;;;;;0.00;0.00;;;;;;;21.74;100.00;102010.38;5113446;28;20091;-45
2023/10/09 11:33:54;;;;;;;0.00;0.00;;;;;;;21.69;100.00;102011.06;5113140;28;20038;-46
2023/10/09 11:36:31;;;;;;;0.00;0.00;;;;;;;21.84;100.00;102007.13;5113152;28;20023;-44
2023/10/09 11:39:13;;;;;;;0.00;0.00;;;;;;;21.82;100.00;102004.59;5113106;28;20043;-45
2023/10/09 11:41:41;;;;;;;0.00;0.00;;;;;;;21.85;100.00;102001.41;5113344;28;20028;-46
2023/10/09 11:44:18;;;;;;;0.00;0.00;;;;;;;21.78;100.00;101995.16;5113093;27;20478;-42
2023/10/09 11:52:56;;;;;;;0.00;0.00;;;;;;;21.02;100.00;101996.31;5112862;28;20474;-45
2023/10/09 11:55:25;;;;;;;0.00;0.00;;;;;;;20.87;100.00;101993.06;5110738;28;20023;-45
2023/10/09 11:57:51;;;;;;;0.00;0.00;;;;;;;20.86;100.00;101992.25;5111659;27;20076;-44
2023/10/09 12:00:29;;;;;;;0.00;0.00;;;;;;;20.75;100.00;101990.25;5111862;28;20423;-42
2023/10/09 12:02:55;;;;;;;0.00;0.00;;;;;;;20.76;100.00;101987.25;5110819;28;20083;-45
2023/10/09 12:05:20;;;;;;;0.00;0.00;;;;;;;20.76;100.00;101990.00;5111868;28;20486;-45
2023/10/09 12:07:46;;;;;;;0.00;0.00;;;;;;;20.81;100.00;101986.59;5111194;28;20107;-42
2023/10/09 12:10:13;;;;;;;0.00;0.00;;;;;;;20.78;100.00;101985.16;5111939;28;20493;-41
2023/10/09 12:12:39;;;;;;;0.00;0.00;;;;;;;20.90;100.00;101998.09;5112140;28;20024;-41
2023/10/09 12:15:06;;;;;;;0.00;0.00;;;;;;;21.04;100.00;101999.69;5110521;28;20023;-42
2023/10/09 12:17:31;;;;;;;0.00;0.00;;;;;;;21.13;100.00;101997.50;5109694;28;20036;-44
2023/10/09 12:19:58;;;;;;;0.00;0.00;;;;;;;21.12;100.00;101993.09;5112185;28;20442;-44
2023/10/09 12:22:26;;;;;;;0.00;0.00;;;;;;;21.24;100.00;102004.97;5110491;28;20450;-48
2023/10/09 12:24:52;;;;;;;0.00;0.00;;;;;;;21.19;100.00;101991.94;5109674;28;20435;-41
2023/10/09 12:27:20;;;;;;;0.00;0.00;;;;;;;21.22;100.00;101994.25;5112883;27;20035;-48
2023/10/09 12:29:45;;;;;;;0.00;0.00;;;;;;;21.18;100.00;101987.53;5109632;27;20615;-42
2023/10/09 12:32:11;;;;;;;0.00;0.00;;;;;;;21.11;100.00;101989.50;5114195;27;20039;-48
2023/10/09 12:34:38;;;;;;;0.00;0.00;;;;;;;21.21;100.00;101987.09;5132199;27;20063;-45
2023/10/09 12:37:04;;;;;;;0.00;0.00;;;;;;;21.00;100.00;101987.50;5109160;28;20016;-45
2023/10/09 12:39:40;;;;;;;0.00;0.00;;;;;;;20.90;100.00;101978.94;5109617;28;20031;-43
2023/10/09 12:42:08;;;;;;;0.00;0.00;;;;;;;20.84;100.00;101983.41;5108816;28;20044;-42
2023/10/09 12:44:38;;;;;;;0.00;0.00;;;;;;;20.77;100.00;101988.94;5111535;27;20055;-46
2023/10/09 12:47:07;;;;;;;0.00;0.00;;;;;;;20.72;100.00;101994.25;5107961;28;20028;-45
2023/10/09 12:49:32;;;;;;;0.00;0.00;;;;;;;20.65;100.00;102001.66;5092119;28;20043;-44
2023/10/09 12:51:58;;;;;;;0.00;0.00;;;;;;;20.58;100.00;101990.75;5104034;28;20059;-44
2023/10/09 12:54:27;;;;;;;0.00;0.00;;;;;;;20.53;100.00;101987.81;5106564;28;20026;-46
2023/10/09 12:56:56;;;;;;;0.00;0.00;;;;;;;20.52;100.00;101991.59;5107766;28;20032;-43
2023/10/09 12:59:23;;;;;;;0.00;0.00;;;;;;;20.62;100.00;101988.44;5102233;28;20050;-44
2023/10/09 13:01:57;;;;;;;0.00;0.00;;;;;;;20.67;100.00;101999.53;5103635;27;20126;-44
2023/10/09 13:04:23;;;;;;;0.00;0.00;;;;;;;20.71;100.00;101994.47;5101695;27;20118;-43
2023/10/09 13:06:53;;;;;;;0.00;0.00;;;;;;;20.69;100.00;101991.94;5104310;28;20027;-46
2023/10/09 13:09:33;;;;;;;0.00;0.00;;;;;;;20.85;100.00;101992.44;5110771;28;20028;-46
2023/10/09 13:12:00;;;;;;;0.00;0.00;;;;;;;20.86;100.00;101999.63;5109066;28;20069;-44
2023/10/09 13:14:28;;;;;;;0.00;0.00;;;;;;;20.93;100.00;101994.91;5100777;27;20401;-42
2023/10/09 13:16:54;;;;;;;0.00;0.00;;;;;;;20.79;100.00;101994.19;5107111;28;20397;-46
2023/10/09 13:19:20;;;;;;;0.00;0.00;;;;;;;20.65;100.00;101989.88;5103686;28;20024;-45
2023/10/09 13:21:46;;;;;;;0.00;0.00;;;;;;;20.68;100.00;101994.91;5100499;28;20020;-43
2023/10/09 13:24:15;;;;;;;0.00;0.00;;;;;;;20.75;100.00;101991.06;5104636;28;20039;-45
2023/10/09 13:26:51;;;;;;;0.00;0.00;;;;;;;20.95;100.00;101987.31;5104160;28;20030;-43
2023/10/09 13:29:22;;;;;;;0.00;0.00;;;;;;;21.07;100.00;101982.81;5104833;28;20061;-46
2023/10/09 13:31:48;;;;;;;0.00;0.00;;;;;;;21.43;100.00;101981.22;5102861;28;20407;-44
2023/10/09 13:34:16;;;;;;;0.00;0.00;;;;;;;21.92;100.00;101987.63;5108563;28;20276;-46
2023/10/09 13:36:49;;;;;;;0.00;0.00;;;;;;;22.29;100.00;101991.16;5107770;28;20054;-44
2023/10/09 13:39:30;;;;;;;0.00;0.00;;;;;;;22.55;100.00;101976.22;5102016;28;20063;-43
2023/10/09 13:41:57;;;;;;;0.00;0.00;;;;;;;22.61;100.00;101976.34;5105684;28;20098;-41
2023/10/09 13:44:26;;;;;;;;;;;;;;;22.53;100.00;101974.78;5107695;28;20027;-45
2023/10/09 13:46:56;;;;;;;0.00;0.00;;;;;;;22.48;100.00;101972.75;5099609;28;19911;-44
2023/10/09 13:49:22;;;;;;;0.00;0.00;;;;;;;22.47;100.00;101971.06;5109556;28;20062;-49
2023/10/09 13:51:50;;;;;;;0.00;0.00;;;;;;;22.43;100.00;101980.84;5086779;28;20028;-47
2023/10/09 13:54:28;;;;;;;0.00;0.00;;;;;;;22.39;100.00;101976.06;5109455;28;20476;-44
2023/10/09 13:56:54;;;;;;;0.00;0.00;;;;;;;22.17;100.00;101986.66;5107553;28;20043;-44
2023/10/09 13:59:24;;;;;;;0.00;0.00;;;;;;;21.99;100.00;101991.13;5106286;28;20020;-42